Time;durP1;ratioP1;P1;durP2;ratioP2;P2;SDS_P1;SDS_P2;PMS_P1;PMS_P2;Temp;Humidity;BMP_temperature;BMP_pressure;BME280_temperature;BME280_humidity;BME280_pressure;Samples;Min_cycle;Max_cycle;Signal;HPM_P1;HPM_P2
2023/09/19 00:03:13;;;;;;;9.00;2.50;;;14.50;99.90;;;;;;4978780;28;20432;-67
2023/09/19 00:05:44;;;;;;;;;;;14.50;99.90;;;;;;4962999;28;20034;-67
2023/09/19 00:08:10;;;;;;;7.13;2.53;;;14.50;99.90;;;;;;4986834;28;19917;-67
2023/09/19 00:10:39;;;;;;;;;;;14.50;99.90;;;;;;4944032;28;20061;-67
2023/09/19 00:13:15;;;;;;;5.18;2.10;;;14.50;99.90;;;;;;5012543;28;20136;-67
2023/09/19 00:15:48;;;;;;;4.05;1.90;;;14.40;99.90;;;;;;5020308;28;20504;-65
2023/09/19 00:18:30;;;;;;;3.58;1.95;;;14.40;99.90;;;;;;5003797;23;20045;-66
2023/09/19 00:20:59;;;;;;;16.23;2.10;;;14.50;99.90;;;;;;5029097;28;20041;-66
2023/09/19 00:23:41;;;;;;;6.00;2.10;;;14.50;99.90;;;;;;5020823;28;20038;-66
2023/09/19 00:26:09;;;;;;;3.35;1.63;;;14.30;99.90;;;;;;5006247;28;20137;-68
2023/09/19 00:28:35;;;;;;;;;;;14.20;99.90;;;;;;5012544;28;20041;-63
2023/09/19 00:31:01;;;;;;;6.68;2.40;;;14.20;99.90;;;;;;5008754;28;19924;-66
2023/09/19 00:33:29;;;;;;;4.32;2.20;;;14.20;99.90;;;;;;4983248;28;20025;-67
2023/09/19 00:36:01;;;;;;;3.25;1.92;;;14.20;99.90;;;;;;5001693;28;20068;-68
2023/09/19 00:38:31;;;;;;;4.82;2.17;;;14.10;99.90;;;;;;5002601;28;21145;-67
2023/09/19 00:40:59;;;;;;;4.80;1.67;;;14.10;99.90;;;;;;5005053;28;20415;-66
2023/09/19 00:43:27;;;;;;;3.67;1.92;;;14.10;99.90;;;;;;4995927;28;20068;-65
2023/09/19 00:45:55;;;;;;;5.63;2.22;;;14.00;99.90;;;;;;4996265;28;20071;-67
2023/09/19 00:48:22;;;;;;;2.78;1.88;;;14.00;99.90;;;;;;4988754;28;20080;-66
2023/09/19 00:50:53;;;;;;;6.15;2.08;;;14.00;99.90;;;;;;4997036;28;20275;-66
2023/09/19 00:53:42;;;;;;;5.05;2.10;;;14.00;99.90;;;;;;4996674;28;20045;-67
2023/09/19 00:56:31;;;;;;;5.72;1.92;;;14.10;99.90;;;;;;4994395;28;20053;-67
2023/09/19 00:59:06;;;;;;;5.25;1.60;;;14.10;99.90;;;;;;5001758;28;20045;-67
2023/09/19 01:01:32;;;;;;;;;;;14.10;99.90;;;;;;4979693;28;20042;-67
2023/09/19 01:04:00;;;;;;;5.28;2.15;;;14.10;99.90;;;;;;4947955;28;19972;-67
2023/09/19 01:06:26;;;;;;;;;;;14.00;99.90;;;;;;4981336;28;20806;-67
2023/09/19 01:08:54;;;;;;;6.57;1.95;;;14.00;99.90;;;;;;4964356;28;19929;-66
2023/09/19 01:11:50;;;;;;;9.75;2.85;;;14.00;99.90;;;;;;5003962;23;20057;-67
2023/09/19 01:14:49;;;;;;;5.82;1.80;;;13.90;99.90;;;;;;4983750;28;20059;-67
2023/09/19 01:20:40;;;;;;;7.20;2.22;;;13.90;99.90;;;;;;4975296;28;20071;-67
2023/09/19 01:23:47;;;;;;;5.75;2.10;;;13.90;99.90;;;;;;4975183;28;20064;-66
2023/09/19 01:26:53;;;;;;;10.45;2.33;;;13.80;99.90;;;;;;4985377;28;20807;-67
2023/09/19 01:29:39;;;;;;;10.07;1.97;;;13.80;99.90;;;;;;4972348;28;20044;-66
2023/09/19 01:32:06;;;;;;;4.53;2.53;;;13.70;99.90;;;;;;5003050;28;20512;-65
2023/09/19 01:35:04;;;;;;;6.57;2.42;;;13.80;99.90;;;;;;5023901;22;20581;-66
2023/09/19 01:37:37;;;;;;;5.90;1.80;;;13.70;99.90;;;;;;4972231;28;20961;-67
2023/09/19 01:40:23;;;;;;;2.97;1.65;;;13.70;99.90;;;;;;4987251;28;20186;-67
2023/09/19 01:42:59;;;;;;;4.25;2.38;;;13.70;99.90;;;;;;5010244;28;20492;-67
2023/09/19 01:45:31;;;;;;;7.43;2.47;;;13.60;99.90;;;;;;5013574;28;20640;-67
2023/09/19 01:48:14;;;;;;;4.55;1.98;;;13.60;99.90;;;;;;5015576;28;20037;-67
2023/09/19 01:50:48;;;;;;;5.63;2.45;;;13.60;99.90;;;;;;5000620;28;21280;-67
2023/09/19 01:53:35;;;;;;;7.93;2.47;;;13.60;99.90;;;;;;5008839;28;20033;-67
2023/09/19 01:56:59;;;;;;;8.50;2.92;;;13.50;99.90;;;;;;4988787;28;20037;-67
2023/09/19 01:59:35;;;;;;;10.27;2.55;;;13.50;99.90;;;;;;4981144;28;20690;-67
2023/09/19 02:02:06;;;;;;;6.43;2.67;;;13.50;99.90;;;;;;4947990;28;20104;-67
2023/09/19 02:04:34;;;;;;;6.22;2.63;;;13.40;99.90;;;;;;4982614;22;20129;-67
2023/09/19 02:07:01;;;;;;;15.10;3.17;;;13.40;99.90;;;;;;4990439;28;20045;-67
2023/09/19 02:09:29;;;;;;;7.30;2.80;;;13.40;99.90;;;;;;4998991;28;20184;-67
2023/09/19 02:12:00;;;;;;;10.10;2.80;;;13.40;99.90;;;;;;5011527;28;20047;-68
2023/09/19 02:14:27;;;;;;;;;;;13.40;99.90;;;;;;4995384;28;20147;-66
2023/09/19 02:16:53;;;;;;;5.53;2.40;;;13.40;99.90;;;;;;4977447;28;22133;-66
2023/09/19 02:19:20;;;;;;;9.07;2.60;;;13.40;99.90;;;;;;4981763;28;20176;-65
2023/09/19 02:21:52;;;;;;;13.68;2.85;;;13.30;99.90;;;;;;4966650;28;20044;-66
2023/09/19 02:24:19;;;;;;;12.77;2.60;;;13.30;99.90;;;;;;4986153;28;20046;-65
2023/09/19 02:26:44;;;;;;;11.68;2.65;;;13.30;99.90;;;;;;4979986;28;22937;-67
2023/09/19 02:29:12;;;;;;;;;;;13.30;99.90;;;;;;4985766;28;20033;-68
2023/09/19 02:31:38;;;;;;;7.00;2.80;;;13.20;99.90;;;;;;4983343;28;20412;-68
2023/09/19 02:34:08;;;;;;;11.50;3.00;;;13.20;99.90;;;;;;4972851;28;20090;-67
2023/09/19 02:36:54;;;;;;;9.68;2.60;;;13.20;99.90;;;;;;4985529;28;20086;-68
2023/09/19 02:39:20;;;;;;;10.73;2.58;;;13.20;99.90;;;;;;4981440;28;20044;-68
2023/09/19 02:41:49;;;;;;;;;;;13.30;99.90;;;;;;4961750;28;20132;-69
2023/09/19 02:44:23;;;;;;;8.00;2.70;;;13.20;99.90;;;;;;4949113;28;19927;-68
2023/09/19 02:46:49;;;;;;;7.05;2.90;;;13.20;99.90;;;;;;4985532;28;20095;-69
2023/09/19 02:49:21;;;;;;;8.25;2.75;;;13.20;99.90;;;;;;4956840;28;21226;-68
2023/09/19 02:51:47;;;;;;;5.68;2.45;;;13.20;99.90;;;;;;4970355;28;20944;-68
2023/09/19 02:54:13;;;;;;;;;;;13.20;99.90;;;;;;4956200;28;20044;-68
2023/09/19 02:56:47;;;;;;;10.73;3.08;;;13.20;99.90;;;;;;4991104;28;19928;-67
2023/09/19 02:59:14;;;;;;;;;;;13.20;99.90;;;;;;5001256;28;21000;-67
2023/09/19 03:01:42;;;;;;;8.32;3.22;;;13.20;99.90;;;;;;4993186;28;20342;-67
2023/09/19 03:04:27;;;;;;;11.77;3.20;;;13.20;99.90;;;;;;5001064;28;20035;-66
2023/09/19 03:07:00;;;;;;;9.75;3.40;;;13.10;99.90;;;;;;4977896;28;20170;-67
2023/09/19 03:09:26;;;;;;;10.73;3.00;;;13.10;99.90;;;;;;4997444;28;20047;-68
2023/09/19 03:11:51;;;;;;;;;;;13.20;99.90;;;;;;4994246;28;20029;-69
2023/09/19 03:14:20;;;;;;;8.10;3.78;;;13.10;99.90;;;;;;5008931;28;19916;-69
2023/09/19 03:16:52;;;;;;;7.88;3.40;;;13.10;99.90;;;;;;5007012;28;20044;-66
2023/09/19 03:19:20;;;;;;;10.68;3.60;;;13.10;99.90;;;;;;4992842;23;21655;-68
2023/09/19 03:21:49;;;;;;;8.30;3.95;;;13.10;99.90;;;;;;4942701;28;20686;-68
2023/09/19 03:24:18;;;;;;;11.10;3.97;;;13.10;99.90;;;;;;4937887;28;20568;-68
2023/09/19 03:26:45;;;;;;;;;;;13.10;99.90;;;;;;4940542;28;20054;-67
2023/09/19 03:29:11;;;;;;;10.40;4.28;;;13.10;99.90;;;;;;4961234;28;19917;-68
2023/09/19 03:31:36;;;;;;;;;;;13.10;99.90;;;;;;4942670;28;20042;-68
2023/09/19 03:34:03;;;;;;;11.95;4.55;;;13.10;99.90;;;;;;4967488;28;19917;-69
2023/09/19 03:36:35;;;;;;;14.57;4.60;;;13.10;99.90;;;;;;4989600;28;20182;-68
2023/09/19 03:39:04;;;;;;;;;;;13.10;99.90;;;;;;4988338;28;22232;-68
2023/09/19 03:41:45;;;;;;;13.30;3.70;;;13.10;99.90;;;;;;4976961;28;19921;-68
2023/09/19 03:44:19;;;;;;;21.40;4.75;;;13.20;99.90;;;;;;4964226;28;20038;-69
2023/09/19 03:46:44;;;;;;;13.05;4.60;;;13.10;99.90;;;;;;4982468;28;20493;-68
2023/09/19 03:49:10;;;;;;;;;;;13.10;99.90;;;;;;4961648;28;20049;-66
2023/09/19 03:51:41;;;;;;;11.98;3.60;;;13.10;99.90;;;;;;4996453;28;20710;-66
2023/09/19 03:54:08;;;;;;;12.10;3.95;;;13.20;99.90;;;;;;4998199;23;20046;-67
2023/09/19 03:56:34;;;;;;;15.00;4.28;;;13.20;99.90;;;;;;4985849;28;20177;-68
2023/09/19 03:59:00;;;;;;;12.27;4.47;;;13.10;99.90;;;;;;4974452;28;20047;-69
2023/09/19 04:01:27;;;;;;;;;;;13.20;99.90;;;;;;4989120;28;20050;-68
2023/09/19 04:03:53;;;;;;;8.65;3.88;;;13.10;99.90;;;;;;4991739;28;19917;-66
2023/09/19 04:06:19;;;;;;;;;;;13.10;99.90;;;;;;4984577;28;20984;-67
2023/09/19 04:08:45;;;;;;;15.20;4.53;;;13.10;99.90;;;;;;5000816;28;19925;-68
2023/09/19 04:11:14;;;;;;;8.45;4.25;;;13.10;99.90;;;;;;4996575;28;20780;-67
2023/09/19 04:13:40;;;;;;;9.10;3.80;;;13.10;99.90;;;;;;5008617;28;20441;-67
2023/09/19 04:16:06;;;;;;;;;;;13.10;99.90;;;;;;4993175;28;20622;-67
2023/09/19 04:18:38;;;;;;;8.70;3.60;;;13.00;99.90;;;;;;4984329;28;19923;-67
2023/09/19 04:21:06;;;;;;;8.50;3.40;;;13.00;99.90;;;;;;4995040;28;20580;-67
2023/09/19 04:23:58;;;;;;;7.80;3.10;;;12.90;99.90;;;;;;5021709;28;20034;-68
2023/09/19 04:26:26;;;;;;;;;;;12.90;99.90;;;;;;4998758;28;20037;-67
2023/09/19 04:28:52;;;;;;;7.88;3.10;;;12.90;99.90;;;;;;5024745;28;19966;-67
2023/09/19 04:31:45;;;;;;;8.98;3.03;;;12.90;99.90;;;;;;4989678;28;20041;-67
2023/09/19 04:34:30;;;;;;;12.07;3.63;;;12.80;99.90;;;;;;4991471;28;20583;-67
2023/09/19 04:37:15;;;;;;;11.65;3.35;;;12.70;99.90;;;;;;5000050;28;20056;-67
2023/09/19 04:39:40;;;;;;;10.20;3.42;;;12.70;99.90;;;;;;4954489;28;20690;-67
2023/09/19 04:42:06;;;;;;;;;;;12.70;99.90;;;;;;4991851;28;20128;-68
2023/09/19 04:44:49;;;;;;;14.95;4.03;;;12.70;99.90;;;;;;4981661;28;19917;-68
2023/09/19 04:47:16;;;;;;;11.82;4.25;;;12.60;99.90;;;;;;4997932;28;20053;-67
2023/09/19 04:49:41;;;;;;;10.30;3.63;;;12.60;99.90;;;;;;4965626;28;20026;-66
2023/09/19 04:52:20;;;;;;;9.05;3.75;;;12.60;99.90;;;;;;4982586;28;20056;-67
2023/09/19 04:54:46;;;;;;;;;;;12.60;99.90;;;;;;4996987;28;20117;-67
2023/09/19 04:57:12;;;;;;;12.75;4.53;;;12.60;99.90;;;;;;4997389;28;19919;-67
2023/09/19 04:59:42;;;;;;;18.38;4.55;;;12.50;99.90;;;;;;4989793;28;20033;-67
2023/09/19 05:02:32;;;;;;;14.55;4.22;;;12.50;99.90;;;;;;4930866;28;20578;-67
2023/09/19 05:04:59;;;;;;;;;;;12.50;99.90;;;;;;4986278;28;20099;-66
2023/09/19 05:07:46;;;;;;;11.75;4.35;;;12.50;99.90;;;;;;4976181;28;20671;-68
2023/09/19 05:10:13;;;;;;;10.73;4.05;;;12.40;99.90;;;;;;4959120;28;20041;-67
2023/09/19 05:12:40;;;;;;;15.25;4.63;;;12.40;99.90;;;;;;4977763;28;20033;-66
2023/09/19 05:15:09;;;;;;;9.60;3.90;;;12.40;99.90;;;;;;4935470;28;20029;-66
2023/09/19 05:17:39;;;;;;;14.45;4.53;;;12.30;99.90;;;;;;4983406;28;20037;-67
2023/09/19 05:20:29;;;;;;;13.27;4.35;;;12.30;99.90;;;;;;4980792;28;20124;-67
2023/09/19 05:23:07;;;;;;;7.55;2.90;;;12.30;99.90;;;;;;4975923;22;20045;-68
2023/09/19 05:25:37;;;;;;;10.35;3.60;;;12.30;99.90;;;;;;4983721;28;20346;-66
2023/09/19 05:28:10;;;;;;;9.45;3.40;;;12.30;99.90;;;;;;4966815;28;20038;-68
2023/09/19 05:30:55;;;;;;;11.73;3.83;;;12.30;99.90;;;;;;4854015;26;20052;-67
2023/09/19 05:33:35;;;;;;;14.13;3.30;;;12.30;99.90;;;;;;5025756;22;20049;-67
2023/09/19 05:36:01;;;;;;;;;;;12.20;99.90;;;;;;5021993;28;20040;-68
2023/09/19 05:38:30;;;;;;;10.13;3.28;;;12.20;99.90;;;;;;5026971;28;19920;-67
2023/09/19 05:41:15;;;;;;;9.73;2.95;;;12.10;99.90;;;;;;5035512;28;20972;-68
2023/09/19 05:44:00;;;;;;;10.57;3.30;;;12.20;99.90;;;;;;5022250;22;20129;-68
2023/09/19 05:46:29;;;;;;;14.88;4.07;;;12.20;99.90;;;;;;4981088;28;20095;-65
2023/09/19 05:48:58;;;;;;;11.93;3.13;;;12.10;99.90;;;;;;4993475;28;20060;-68
2023/09/19 05:51:42;;;;;;;9.40;3.55;;;12.20;99.90;;;;;;5001822;28;20167;-68
2023/09/19 05:54:15;;;;;;;15.85;3.55;;;12.20;99.90;;;;;;4996821;22;20076;-67
2023/09/19 05:56:46;;;;;;;14.80;3.22;;;12.10;99.90;;;;;;5008065;28;20043;-67
2023/09/19 05:59:21;;;;;;;10.40;3.20;;;12.20;99.90;;;;;;5007472;28;20188;-67
2023/09/19 06:01:59;;;;;;;14.20;3.58;;;12.20;99.90;;;;;;4963672;28;20041;-68
2023/09/19 06:04:55;;;;;;;11.60;3.00;;;12.20;99.90;;;;;;4970232;28;20084;-69
2023/09/19 06:07:26;;;;;;;13.15;3.15;;;12.20;99.90;;;;;;4980002;28;20045;-68
2023/09/19 06:09:56;;;;;;;13.13;3.38;;;12.20;99.90;;;;;;4991964;28;20128;-67
2023/09/19 06:12:45;;;;;;;13.57;3.47;;;12.20;99.90;;;;;;5006121;28;20129;-66
2023/09/19 06:15:15;;;;;;;11.98;2.65;;;12.20;99.90;;;;;;5024092;28;20128;-67
2023/09/19 06:17:55;;;;;;;13.18;3.17;;;12.20;99.90;;;;;;5022015;28;20053;-68
2023/09/19 06:20:23;;;;;;;15.80;2.67;;;12.30;99.90;;;;;;5027930;28;20132;-68
2023/09/19 06:23:07;;;;;;;11.18;3.15;;;12.30;99.90;;;;;;5006850;28;20980;-67
2023/09/19 06:25:35;;;;;;;14.65;3.33;;;12.30;99.90;;;;;;5018380;28;20049;-67
2023/09/19 06:28:04;;;;;;;10.13;2.75;;;12.30;99.90;;;;;;5023320;28;20447;-68
2023/09/19 06:30:49;;;;;;;16.42;3.20;;;12.30;99.90;;;;;;4999019;28;20035;-70
2023/09/19 06:33:16;;;;;;;;;;;12.40;99.90;;;;;;5006697;28;20410;-68
2023/09/19 06:36:04;;;;;;;14.65;3.05;;;12.40;99.90;;;;;;5013084;28;19927;-73
2023/09/19 06:38:45;;;;;;;7.50;3.15;;;12.40;99.90;;;;;;5027471;22;20084;-72
2023/09/19 06:41:15;;;;;;;17.05;3.15;;;12.40;99.90;;;;;;5032336;22;20048;-71
2023/09/19 06:43:41;;;;;;;12.18;3.63;;;12.50;99.90;;;;;;5003075;28;20678;-66
2023/09/19 06:46:07;;;;;;;;;;;12.50;99.90;;;;;;5007138;28;20099;-65
2023/09/19 06:48:33;;;;;;;10.75;2.70;;;12.50;99.90;;;;;;5003102;28;20028;-65
2023/09/19 06:51:04;;;;;;;18.30;3.40;;;12.50;99.90;;;;;;5011414;28;20044;-66
2023/09/19 06:53:49;;;;;;;11.35;3.28;;;12.50;99.90;;;;;;4997960;28;20040;-68
2023/09/19 06:56:35;;;;;;;12.82;3.47;;;12.50;99.90;;;;;;4991362;28;20064;-69
2023/09/19 06:59:08;;;;;;;14.07;3.53;;;12.50;99.90;;;;;;4984666;28;20044;-69
2023/09/19 07:01:41;;;;;;;13.13;3.28;;;12.50;99.90;;;;;;4970750;28;20045;-67
2023/09/19 07:04:21;;;;;;;16.88;3.70;;;12.50;99.90;;;;;;4956776;28;20045;-68
2023/09/19 07:06:50;;;;;;;11.07;2.05;;;12.60;99.90;;;;;;4980080;28;22238;-70
2023/09/19 07:09:19;;;;;;;14.13;2.88;;;12.60;99.90;;;;;;4949103;28;20034;-69
2023/09/19 07:12:04;;;;;;;10.23;2.33;;;12.60;99.90;;;;;;4971548;28;20028;-69
2023/09/19 07:14:47;;;;;;;15.40;2.72;;;12.60;99.90;;;;;;4993113;28;20964;-69
2023/09/19 07:17:18;;;;;;;;;;;12.60;99.90;;;;;;4996526;28;20046;-68
2023/09/19 07:19:44;;;;;;;9.00;2.50;;;12.70;99.90;;;;;;5011914;28;19948;-69
2023/09/19 07:22:10;;;;;;;;;;;12.70;99.90;;;;;;5019291;28;20061;-70
2023/09/19 07:24:36;;;;;;;10.93;2.63;;;12.70;99.90;;;;;;5013032;28;19921;-67
2023/09/19 07:27:02;;;;;;;13.50;2.75;;;12.80;99.90;;;;;;5021713;28;20045;-68
2023/09/19 07:29:28;;;;;;;12.27;2.38;;;12.70;99.90;;;;;;5018002;28;20124;-68
2023/09/19 07:31:53;;;;;;;;;;;12.70;99.90;;;;;;5015007;28;20117;-68
2023/09/19 07:34:22;;;;;;;13.18;3.10;;;12.80;99.90;;;;;;5022572;28;20332;-69
2023/09/19 07:36:48;;;;;;;12.48;3.00;;;12.80;99.90;;;;;;5027804;28;20052;-65
2023/09/19 07:39:13;;;;;;;;;;;12.90;99.90;;;;;;5023880;28;20042;-70
2023/09/19 07:41:39;;;;;;;9.40;2.15;;;12.90;99.90;;;;;;5022281;28;19932;-64
2023/09/19 07:44:05;;;;;;;;;;;12.90;99.90;;;;;;5019548;28;20034;-64
2023/09/19 07:46:31;;;;;;;13.07;2.50;;;13.00;99.90;;;;;;5025250;28;19928;-65
2023/09/19 07:48:57;;;;;;;;;;;13.10;99.90;;;;;;5026027;28;20065;-68
2023/09/19 07:51:22;;;;;;;14.70;2.58;;;13.10;99.90;;;;;;5015572;28;19921;-69
2023/09/19 07:53:48;;;;;;;;;;;13.20;99.90;;;;;;5018231;28;20068;-68
2023/09/19 07:56:14;;;;;;;13.05;2.30;;;13.20;99.90;;;;;;5020884;28;19917;-69
2023/09/19 07:58:43;;;;;;;13.98;2.88;;;13.10;99.90;;;;;;5002315;28;20034;-71
2023/09/19 08:01:10;;;;;;;15.15;2.90;;;13.10;99.90;;;;;;5013007;28;20069;-68
2023/09/19 08:03:43;;;;;;;17.95;3.22;;;13.20;99.90;;;;;;5003972;28;20507;-70
2023/09/19 08:06:09;;;;;;;13.48;2.60;;;13.30;99.90;;;;;;5005172;28;20037;-70
2023/09/19 08:08:38;;;;;;;14.73;3.83;;;13.30;99.90;;;;;;4996081;28;20046;-69
2023/09/19 08:11:11;;;;;;;10.18;2.13;;;13.40;99.90;;;;;;5000310;28;20103;-69
2023/09/19 08:13:43;;;;;;;13.77;2.78;;;13.40;99.90;;;;;;5000657;28;20104;-69
2023/09/19 08:16:10;;;;;;;13.77;2.97;;;13.50;99.90;;;;;;5002309;28;20053;-69
2023/09/19 08:18:37;;;;;;;15.43;3.35;;;13.60;99.90;;;;;;5002865;28;20659;-69
2023/09/19 08:21:03;;;;;;;15.18;3.28;;;13.70;99.90;;;;;;4996306;28;20064;-69
2023/09/19 08:23:28;;;;;;;;;;;13.80;99.90;;;;;;4993851;28;20042;-69
2023/09/19 08:25:58;;;;;;;14.18;2.85;;;13.80;99.90;;;;;;5002733;28;20423;-69
2023/09/19 08:28:24;;;;;;;9.32;2.53;;;13.80;99.90;;;;;;5000363;28;20058;-68
2023/09/19 08:30:51;;;;;;;17.17;2.90;;;13.80;99.90;;;;;;5004913;28;20041;-69
2023/09/19 08:33:16;;;;;;;17.45;3.60;;;13.90;99.90;;;;;;5008317;28;20034;-69
2023/09/19 08:35:42;;;;;;;;;;;13.80;99.90;;;;;;5011785;28;20065;-70
2023/09/19 08:38:10;;;;;;;20.27;4.40;;;13.80;99.90;;;;;;5003690;28;19944;-69
2023/09/19 08:40:41;;;;;;;14.75;3.35;;;13.80;99.90;;;;;;5021345;28;20041;-69
2023/09/19 08:43:07;;;;;;;14.23;3.00;;;13.80;99.90;;;;;;5011753;28;20508;-69
2023/09/19 08:45:33;;;;;;;13.10;2.80;;;13.80;99.90;;;;;;5015083;28;20768;-70
2023/09/19 08:48:28;;;;;;;16.88;2.97;;;13.90;99.90;;;;;;5002401;28;20099;-69
2023/09/19 08:51:05;;;;;;;20.20;3.25;;;14.00;99.90;;;;;;5012820;28;20038;-69
2023/09/19 08:53:37;;;;;;;14.93;2.90;;;14.00;99.90;;;;;;5017524;28;20486;-70
2023/09/19 08:56:07;;;;;;;9.95;2.47;;;14.10;99.90;;;;;;5015733;28;20124;-70
2023/09/19 08:58:44;;;;;;;11.65;2.45;;;14.20;99.90;;;;;;5016906;28;20096;-69
2023/09/19 09:01:12;;;;;;;11.65;2.58;;;14.20;99.90;;;;;;5013067;28;20140;-70
2023/09/19 09:03:40;;;;;;;10.88;2.97;;;14.30;99.90;;;;;;5018468;28;20470;-69
2023/09/19 09:06:10;;;;;;;8.85;2.92;;;14.30;99.90;;;;;;5016926;28;20050;-69
2023/09/19 09:08:37;;;;;;;13.15;3.25;;;14.40;99.90;;;;;;5010596;28;20038;-68
2023/09/19 09:11:03;;;;;;;15.13;3.30;;;14.40;99.90;;;;;;5014766;28;20115;-68
2023/09/19 09:13:29;;;;;;;;;;;14.40;99.90;;;;;;5006873;28;20074;-68
2023/09/19 09:15:54;;;;;;;10.35;2.85;;;14.50;99.90;;;;;;5020321;28;19956;-69
2023/09/19 09:18:20;;;;;;;16.25;2.63;;;14.60;99.90;;;;;;5013697;28;20041;-67
2023/09/19 09:20:46;;;;;;;;;;;14.60;99.90;;;;;;5014430;28;20553;-71
2023/09/19 09:23:13;;;;;;;14.35;2.75;;;14.70;99.90;;;;;;5015880;28;20038;-69
2023/09/19 09:25:50;;;;;;;10.10;2.65;;;14.70;99.90;;;;;;5011324;28;20072;-68
2023/09/19 09:28:24;;;;;;;5.72;2.13;;;14.60;99.90;;;;;;5015913;28;20819;-70
2023/09/19 09:30:51;;;;;;;14.27;2.70;;;14.60;99.90;;;;;;5014932;28;20047;-71
2023/09/19 09:33:17;;;;;;;10.52;2.63;;;14.60;99.90;;;;;;5011858;28;20037;-69
2023/09/19 09:35:52;;;;;;;;;;;14.60;99.90;;;;;;5010929;28;20030;-70
2023/09/19 09:38:31;;;;;;;12.70;3.08;;;14.60;99.90;;;;;;5013079;28;19967;-69
2023/09/19 09:41:06;;;;;;;14.18;3.08;;;14.60;99.90;;;;;;5014670;28;20113;-70
2023/09/19 09:43:38;;;;;;;9.10;2.72;;;14.60;99.90;;;;;;5016452;28;20041;-70
2023/09/19 09:49:18;;;;;;;8.75;2.83;;;14.60;99.90;;;;;;5015688;28;20056;-68
2023/09/19 09:52:17;;;;;;;11.60;2.78;;;14.50;99.90;;;;;;5012884;28;20083;-68
2023/09/19 09:55:05;;;;;;;11.55;2.40;;;14.60;99.90;;;;;;5006006;28;20065;-69
2023/09/19 09:57:31;;;;;;;9.80;2.28;;;14.70;99.90;;;;;;4989258;28;20046;-69
2023/09/19 10:00:16;;;;;;;;;;;14.80;99.90;;;;;;5016210;28;20052;-68
2023/09/19 10:02:42;;;;;;;9.52;2.25;;;14.80;99.90;;;;;;5013111;28;19917;-70
2023/09/19 10:05:28;;;;;;;10.95;2.38;;;14.80;99.90;;;;;;5015962;28;20044;-71
2023/09/19 10:08:00;;;;;;;8.68;2.58;;;14.80;99.90;;;;;;5016321;28;20095;-70
2023/09/19 10:13:13;;;;;;;13.68;2.85;;;14.70;99.90;;;;;;5011779;28;20037;-70
2023/09/19 10:15:42;;;;;;;9.00;2.92;;;14.80;99.90;;;;;;5013285;28;20131;-70
2023/09/19 10:18:17;;;;;;;8.20;2.58;;;14.80;99.90;;;;;;5011058;28;20152;-70
2023/09/19 10:20:45;;;;;;;10.27;2.17;;;14.70;99.90;;;;;;5010446;28;20052;-70
2023/09/19 10:23:14;;;;;;;14.25;2.80;;;14.70;99.90;;;;;;5015081;28;20401;-70
2023/09/19 10:25:41;;;;;;;13.52;3.25;;;14.70;99.90;;;;;;5012707;28;20658;-71
2023/09/19 10:28:13;;;;;;;8.05;2.45;;;14.70;99.90;;;;;;5019698;28;20140;-68
2023/09/19 10:30:44;;;;;;;14.02;2.70;;;14.80;99.90;;;;;;4998103;28;20049;-70
2023/09/19 10:33:12;;;;;;;8.50;2.72;;;14.90;99.90;;;;;;5015085;28;20049;-70
2023/09/19 10:35:59;;;;;;;9.38;2.58;;;14.90;99.90;;;;;;5014304;28;20037;-71
2023/09/19 10:38:28;;;;;;;13.27;2.10;;;15.00;99.90;;;;;;5017110;28;20037;-70
2023/09/19 10:40:59;;;;;;;10.38;2.55;;;15.10;99.90;;;;;;5015498;28;20038;-70
2023/09/19 10:43:32;;;;;;;10.70;2.78;;;15.10;99.90;;;;;;5015178;28;20572;-70
2023/09/19 10:46:12;;;;;;;9.93;2.78;;;15.20;99.90;;;;;;5014624;28;20029;-70
2023/09/19 10:48:40;;;;;;;9.70;2.50;;;15.20;99.90;;;;;;5015017;28;20042;-70
2023/09/19 10:51:13;;;;;;;17.73;3.10;;;15.20;99.90;;;;;;5016375;28;20625;-69
2023/09/19 10:53:45;;;;;;;8.57;2.47;;;15.40;99.90;;;;;;5015764;28;20044;-70
2023/09/19 10:56:27;;;;;;;9.77;2.70;;;15.20;99.90;;;;;;5010874;28;20089;-70
2023/09/19 10:59:12;;;;;;;10.75;2.55;;;15.20;99.90;;;;;;5015008;28;20049;-70
2023/09/19 11:02:17;;;;;;;6.22;2.35;;;15.10;99.90;;;;;;5007557;28;20498;-70
2023/09/19 11:04:45;;;;;;;8.40;2.13;;;15.10;99.90;;;;;;4993799;28;20567;-69
2023/09/19 11:07:14;;;;;;;12.18;2.58;;;15.20;99.90;;;;;;5013644;28;20034;-70
2023/09/19 11:09:58;;;;;;;7.22;2.22;;;15.30;99.90;;;;;;5012532;28;20749;-70
2023/09/19 11:12:45;;;;;;;11.02;2.38;;;15.30;99.90;;;;;;5013182;28;20046;-70
2023/09/19 11:15:49;;;;;;;9.52;2.22;;;15.30;99.90;;;;;;5013935;28;20033;-70
2023/09/19 11:18:41;;;;;;;10.82;2.40;;;15.30;99.90;;;;;;5014058;28;20042;-68
2023/09/19 11:21:32;;;;;;;11.07;2.53;;;15.20;99.90;;;;;;5010029;28;20030;-70
2023/09/19 11:24:22;;;;;;;7.80;2.08;;;15.40;99.90;;;;;;5007219;28;20048;-70
2023/09/19 11:26:49;;;;;;;8.88;2.53;;;15.40;99.90;;;;;;5007286;28;20070;-69
2023/09/19 11:29:29;;;;;;;13.60;2.88;;;15.60;99.90;;;;;;5010191;28;20041;-69
2023/09/19 11:32:01;;;;;;;10.40;2.08;;;15.90;99.90;;;;;;5005576;28;20082;-69
2023/09/19 11:34:50;;;;;;;12.27;2.30;;;16.00;99.90;;;;;;5012946;28;20034;-68
2023/09/19 11:37:15;;;;;;;5.13;2.17;;;16.00;99.90;;;;;;5015804;28;20061;-69
2023/09/19 11:40:00;;;;;;;;;;;16.00;99.90;;;;;;5012085;28;20053;-69
2023/09/19 11:42:44;;;;;;;8.55;2.60;;;16.20;99.90;;;;;;5008643;28;20048;-71
2023/09/19 11:45:56;;;;;;;11.18;2.33;;;16.10;99.90;;;;;;5008049;28;20042;-69
2023/09/19 11:48:27;;;;;;;11.23;2.60;;;16.30;99.90;;;;;;5010199;28;20050;-68
2023/09/19 11:50:53;;;;;;;8.73;2.15;;;16.30;99.90;;;;;;5005372;28;20050;-69
2023/09/19 11:53:19;;;;;;;10.25;2.15;;;16.20;99.90;;;;;;5013796;28;20045;-69
2023/09/19 11:55:46;;;;;;;9.70;2.17;;;16.10;99.90;;;;;;5007261;28;20111;-68
2023/09/19 11:58:19;;;;;;;10.02;2.47;;;16.10;99.90;;;;;;5014428;28;20073;-69
2023/09/19 12:00:46;;;;;;;9.77;1.88;;;16.30;99.90;;;;;;5007104;28;20113;-69
2023/09/19 12:03:14;;;;;;;8.52;2.50;;;16.20;99.90;;;;;;4990817;28;20033;-70
2023/09/19 12:05:40;;;;;;;5.97;1.85;;;16.20;99.90;;;;;;4995988;28;20053;-69
2023/09/19 12:08:08;;;;;;;;;;;16.20;99.90;;;;;;4997986;28;20038;-69
2023/09/19 12:10:57;;;;;;;5.13;1.85;;;16.20;99.90;;;;;;4996633;28;20008;-69
2023/09/19 12:13:24;;;;;;;9.15;2.00;;;16.30;99.90;;;;;;5000949;28;20266;-69
2023/09/19 12:15:49;;;;;;;12.32;2.60;;;16.20;99.90;;;;;;5002368;28;20042;-70
2023/09/19 12:18:30;;;;;;;;;;;16.10;99.90;;;;;;4997157;28;20602;-69
2023/09/19 12:20:57;;;;;;;10.27;1.92;;;16.10;99.90;;;;;;4997486;28;19929;-69
2023/09/19 12:23:23;;;;;;;7.68;1.95;;;16.20;99.90;;;;;;4984795;28;20050;-69
2023/09/19 12:25:53;;;;;;;;;;;16.20;99.90;;;;;;4988643;28;20092;-69
2023/09/19 12:28:22;;;;;;;9.75;2.00;;;16.10;99.90;;;;;;4997283;28;19925;-69
2023/09/19 12:30:48;;;;;;;8.23;1.98;;;16.30;99.90;;;;;;5004402;28;20121;-69
2023/09/19 12:33:21;;;;;;;7.70;2.20;;;16.30;99.90;;;;;;5017389;28;20120;-69
2023/09/19 12:35:47;;;;;;;6.97;2.00;;;16.20;99.90;;;;;;5013672;28;20444;-69
2023/09/19 12:38:24;;;;;;;;;;;16.30;99.90;;;;;;5016657;28;20466;-67
2023/09/19 12:40:51;;;;;;;5.55;1.80;;;16.30;99.90;;;;;;5020473;28;19921;-68
2023/09/19 12:43:18;;;;;;;8.50;1.85;;;16.50;99.90;;;;;;5011914;28;20091;-68
2023/09/19 12:45:44;;;;;;;9.52;2.42;;;16.50;99.90;;;;;;5018696;28;20045;-68
2023/09/19 12:48:21;;;;;;;8.50;2.40;;;16.60;99.90;;;;;;5015551;28;20090;-68
2023/09/19 12:51:22;;;;;;;;;;;16.60;99.90;;;;;;5008209;28;20072;-65
2023/09/19 12:53:57;;;;;;;7.50;2.22;;;16.60;99.90;;;;;;4999283;28;20555;-67
2023/09/19 12:56:23;;;;;;;7.43;1.98;;;16.70;99.90;;;;;;5012864;28;20049;-68
2023/09/19 12:58:56;;;;;;;;;;;16.70;99.90;;;;;;5014483;28;20041;-68
2023/09/19 13:01:26;;;;;;;9.65;2.10;;;16.60;99.90;;;;;;5009782;28;20422;-70
2023/09/19 13:04:28;;;;;;;9.50;2.00;;;16.50;99.90;;;;;;5015601;28;20560;-68
2023/09/19 13:06:54;;;;;;;10.73;2.38;;;16.60;99.90;;;;;;5005448;28;20042;-69
2023/09/19 13:09:28;;;;;;;10.82;2.08;;;16.60;99.90;;;;;;5012093;28;20094;-69
2023/09/19 13:11:54;;;;;;;12.05;2.40;;;16.70;99.90;;;;;;5013841;28;20042;-70
2023/09/19 13:14:19;;;;;;;;;;;16.70;99.90;;;;;;5010789;28;20041;-70
2023/09/19 13:17:03;;;;;;;5.50;1.77;;;16.80;99.90;;;;;;5014427;28;19937;-70
2023/09/19 13:19:56;;;;;;;8.45;1.65;;;16.90;99.90;;;;;;5012309;28;20068;-70
2023/09/19 13:22:44;;;;;;;3.88;1.92;;;16.80;99.90;;;;;;5009097;28;20107;-70
2023/09/19 13:25:18;;;;;;;8.32;2.38;;;16.80;99.90;;;;;;5013722;28;20104;-70
2023/09/19 13:27:51;;;;;;;9.70;2.35;;;16.70;99.90;;;;;;5017325;28;20130;-70
2023/09/19 13:30:17;;;;;;;16.58;2.58;;;16.70;99.90;;;;;;5008633;28;20072;-70
2023/09/19 13:32:43;;;;;;;6.60;1.80;;;16.70;99.90;;;;;;4999759;28;20048;-70
2023/09/19 13:35:09;;;;;;;;;;;16.70;99.90;;;;;;4998531;28;20045;-70
2023/09/19 13:37:41;;;;;;;8.48;2.05;;;16.60;99.90;;;;;;4997898;28;19983;-70